createdAt,value
2023-07-08T00:00:14.967Z,19.76
2023-07-08T00:02:42.891Z,19.73
2023-07-08T00:05:14.272Z,19.71
2023-07-08T00:07:41.680Z,19.69
2023-07-08T00:10:15.072Z,19.68
2023-07-08T00:12:43.925Z,19.66
2023-07-08T00:15:11.951Z,19.64
2023-07-08T00:17:39.535Z,19.64
2023-07-08T00:20:15.127Z,19.64
2023-07-08T00:22:42.837Z,19.64
2023-07-08T00:25:10.187Z,19.64
2023-07-08T00:27:37.564Z,19.63
2023-07-08T00:30:26.434Z,19.62
2023-07-08T00:32:57.455Z,19.61
2023-07-08T00:35:30.159Z,19.60
2023-07-08T00:38:02.643Z,19.61
2023-07-08T00:40:31.724Z,19.60
2023-07-08T00:43:01.016Z,19.58
2023-07-08T00:45:53.435Z,19.58
2023-07-08T00:48:26.776Z,19.59
2023-07-08T00:50:54.269Z,19.58
2023-07-08T00:53:28.857Z,19.55
2023-07-08T00:56:18.137Z,19.52
2023-07-08T00:58:50.601Z,19.47
2023-07-08T01:01:18.035Z,19.44
2023-07-08T01:04:24.282Z,19.42
2023-07-08T01:06:58.350Z,19.35
2023-07-08T01:09:31.007Z,19.30
2023-07-08T01:12:00.003Z,19.26
2023-07-08T01:14:28.801Z,19.25
2023-07-08T01:16:56.533Z,19.25
2023-07-08T01:19:33.336Z,19.23
2023-07-08T01:22:03.167Z,19.20
2023-07-08T01:24:31.073Z,19.18
2023-07-08T01:26:59.304Z,19.15
2023-07-08T01:29:26.656Z,19.10
2023-07-08T01:31:56.440Z,19.06
2023-07-08T01:34:23.899Z,19.02
2023-07-08T01:36:55.554Z,18.97
2023-07-08T01:39:24.097Z,18.92
2023-07-08T01:41:52.517Z,18.87
2023-07-08T01:44:31.222Z,18.82
2023-07-08T01:47:06.292Z,18.78
2023-07-08T01:49:33.963Z,18.74
2023-07-08T01:52:01.329Z,18.71
2023-07-08T01:54:28.654Z,18.68
2023-07-08T01:56:59.015Z,18.66
2023-07-08T01:59:26.567Z,18.66
2023-07-08T02:01:56.551Z,18.66
2023-07-08T02:04:25.114Z,18.66
2023-07-08T02:06:56.427Z,18.66
2023-07-08T02:09:24.194Z,18.66
2023-07-08T02:11:52.547Z,18.66
2023-07-08T02:14:20.672Z,18.67
2023-07-08T02:16:48.583Z,18.68
2023-07-08T02:19:16.129Z,18.70
2023-07-08T02:21:44.033Z,18.70
2023-07-08T02:24:11.475Z,18.70
2023-07-08T02:26:38.800Z,18.72
2023-07-08T02:29:06.198Z,18.73
2023-07-08T02:31:33.547Z,18.75
2023-07-08T02:34:03.232Z,18.76
2023-07-08T02:36:30.607Z,18.77
2023-07-08T02:38:57.856Z,18.76
2023-07-08T02:41:25.171Z,18.76
2023-07-08T02:43:52.704Z,18.75
2023-07-08T02:46:20.186Z,18.77
2023-07-08T02:48:47.517Z,18.77
2023-07-08T02:51:14.812Z,18.75
2023-07-08T02:53:42.370Z,18.74
2023-07-08T02:56:09.678Z,18.74
2023-07-08T02:58:37.223Z,18.72
2023-07-08T03:01:05.051Z,18.70
2023-07-08T03:03:32.782Z,18.69
2023-07-08T03:06:01.860Z,18.68
2023-07-08T03:08:29.526Z,18.68
2023-07-08T03:11:01.616Z,18.67
2023-07-08T03:13:29.698Z,18.67
2023-07-08T03:15:58.496Z,18.66
2023-07-08T03:18:27.880Z,18.66
2023-07-08T03:20:57.164Z,18.65
2023-07-08T03:23:25.329Z,18.65
2023-07-08T03:25:53.460Z,18.65
2023-07-08T03:28:21.386Z,18.66
2023-07-08T03:30:52.472Z,18.67
2023-07-08T03:33:19.901Z,18.68
2023-07-08T03:35:47.361Z,18.69
2023-07-08T03:38:14.779Z,18.68
2023-07-08T03:40:42.376Z,18.67
2023-07-08T03:43:09.666Z,18.67
2023-07-08T03:45:37.692Z,18.67
2023-07-08T03:48:05.589Z,18.68
2023-07-08T03:50:33.261Z,18.70
2023-07-08T03:53:00.745Z,18.72
2023-07-08T03:55:30.482Z,18.73
2023-07-08T03:57:58.456Z,18.73
2023-07-08T04:00:26.750Z,18.76
2023-07-08T04:02:54.265Z,18.78
2023-07-08T04:05:23.716Z,18.80
2023-07-08T04:07:51.691Z,18.83
2023-07-08T04:10:19.221Z,18.85
2023-07-08T04:12:46.562Z,18.87
2023-07-08T04:15:14.605Z,18.89
2023-07-08T04:17:49.540Z,18.92
2023-07-08T04:20:19.877Z,18.95
2023-07-08T04:22:47.426Z,18.99
2023-07-08T04:25:15.597Z,19.01
2023-07-08T04:27:43.084Z,19.03
2023-07-08T04:30:19.732Z,19.04
2023-07-08T04:32:47.119Z,19.06
2023-07-08T04:35:14.551Z,19.07
2023-07-08T04:37:42.002Z,19.09
2023-07-08T04:40:16.066Z,19.13
2023-07-08T04:42:43.418Z,19.15
2023-07-08T04:45:10.845Z,19.18
2023-07-08T04:47:38.174Z,19.25
2023-07-08T04:50:05.939Z,19.34
2023-07-08T04:52:33.247Z,19.43
2023-07-08T04:55:00.617Z,19.49
2023-07-08T04:57:27.909Z,19.53
2023-07-08T04:59:55.209Z,19.55
2023-07-08T05:02:22.550Z,19.56
2023-07-08T05:04:49.878Z,19.56
2023-07-08T05:07:17.419Z,19.55
2023-07-08T05:09:44.749Z,19.54
2023-07-08T05:12:12.039Z,19.54
2023-07-08T05:14:39.674Z,19.57
2023-07-08T05:17:07.339Z,19.62
2023-07-08T05:19:34.808Z,19.66
2023-07-08T05:22:02.590Z,19.73
2023-07-08T05:24:30.020Z,19.81
2023-07-08T05:26:57.410Z,19.87
2023-07-08T05:29:25.151Z,19.91
2023-07-08T05:31:52.535Z,19.92
2023-07-08T05:34:19.851Z,19.93
2023-07-08T05:36:47.219Z,19.94
2023-07-08T05:39:14.587Z,19.93
2023-07-08T05:41:41.860Z,19.93
2023-07-08T05:44:09.224Z,19.95
2023-07-08T05:46:36.723Z,19.98
2023-07-08T05:49:04.108Z,19.99
2023-07-08T05:51:31.499Z,19.99
2023-07-08T05:53:58.906Z,19.99
2023-07-08T05:56:26.194Z,19.99
2023-07-08T05:58:53.518Z,20.00
2023-07-08T06:01:20.863Z,20.02
2023-07-08T06:03:48.540Z,20.04
2023-07-08T06:06:16.033Z,20.05
2023-07-08T06:08:43.643Z,20.06
2023-07-08T06:11:10.914Z,20.08
2023-07-08T06:13:38.320Z,20.11
2023-07-08T06:16:06.409Z,20.15
2023-07-08T06:18:33.808Z,20.18
2023-07-08T06:21:01.582Z,20.19
2023-07-08T06:23:29.334Z,20.20
2023-07-08T06:25:57.224Z,20.22
2023-07-08T06:28:24.694Z,20.26
2023-07-08T06:30:52.003Z,20.29
2023-07-08T06:33:19.302Z,20.29
2023-07-08T06:35:46.630Z,20.22
2023-07-08T06:38:13.987Z,20.12
2023-07-08T06:40:41.446Z,20.01
2023-07-08T06:43:08.783Z,19.90
2023-07-08T06:45:45.183Z,19.79
2023-07-08T06:48:12.587Z,19.69
2023-07-08T06:50:39.913Z,19.61
2023-07-08T06:53:08.280Z,19.55
2023-07-08T06:55:35.577Z,19.50
2023-07-08T06:58:02.853Z,19.45
2023-07-08T07:00:30.162Z,19.40
2023-07-08T07:02:57.458Z,19.35
2023-07-08T07:05:25.133Z,19.30
2023-07-08T07:07:53.828Z,19.26
2023-07-08T07:10:21.254Z,19.23
2023-07-08T07:12:48.564Z,19.23
2023-07-08T07:15:16.461Z,19.23
2023-07-08T07:17:43.951Z,19.26
2023-07-08T07:20:11.714Z,19.32
2023-07-08T07:22:39.190Z,19.34
2023-07-08T07:25:06.852Z,19.34
2023-07-08T07:27:34.379Z,19.34
2023-07-08T07:30:01.904Z,19.33
2023-07-08T07:32:30.647Z,19.28
2023-07-08T07:34:59.532Z,19.21
2023-07-08T07:37:26.879Z,19.13
2023-07-08T07:39:54.327Z,19.05
2023-07-08T07:42:21.737Z,19.02
2023-07-08T07:44:49.267Z,18.99
2023-07-08T07:47:16.893Z,18.95
2023-07-08T07:49:44.403Z,18.91
2023-07-08T07:52:12.198Z,18.88
2023-07-08T07:54:40.141Z,18.86
2023-07-08T07:57:07.941Z,18.84
2023-07-08T07:59:35.358Z,18.84
2023-07-08T08:02:02.842Z,18.82
2023-07-08T08:04:30.223Z,18.78
2023-07-08T08:06:57.605Z,18.73
2023-07-08T08:09:25.053Z,18.70
2023-07-08T08:11:53.149Z,18.68
2023-07-08T08:14:20.493Z,18.65
2023-07-08T08:16:48.277Z,18.64
2023-07-08T08:19:15.803Z,18.62
2023-07-08T08:21:43.606Z,18.61
2023-07-08T08:24:11.322Z,18.60
2023-07-08T08:26:38.667Z,18.56
2023-07-08T08:29:05.989Z,18.52
2023-07-08T08:31:33.464Z,18.46
2023-07-08T08:34:00.802Z,18.39
2023-07-08T08:36:28.181Z,18.36
2023-07-08T08:38:55.533Z,18.33
2023-07-08T08:41:31.246Z,18.29
2023-07-08T08:43:58.724Z,18.24
2023-07-08T08:46:48.156Z,18.17
2023-07-08T08:49:21.805Z,18.08
2023-07-08T08:51:49.669Z,18.03
2023-07-08T08:54:16.989Z,17.98
2023-07-08T08:56:52.957Z,17.94
2023-07-08T08:59:28.616Z,17.92
2023-07-08T09:01:56.668Z,17.90
2023-07-08T09:04:31.324Z,17.88
2023-07-08T09:07:09.348Z,17.83
2023-07-08T09:09:47.011Z,17.76
2023-07-08T09:12:19.339Z,17.72
2023-07-08T09:14:46.949Z,17.70
2023-07-08T09:17:37.852Z,17.69
2023-07-08T09:20:18.121Z,17.68
2023-07-08T09:23:04.323Z,17.65
2023-07-08T09:25:46.926Z,17.62
2023-07-08T09:28:16.540Z,17.59
2023-07-08T09:30:50.186Z,17.59
2023-07-08T09:33:17.686Z,17.59
2023-07-08T09:35:49.998Z,17.59
2023-07-08T09:38:19.017Z,17.58
2023-07-08T09:40:52.272Z,17.58
2023-07-08T09:43:39.497Z,17.61
2023-07-08T09:46:07.046Z,17.65
2023-07-08T09:48:37.593Z,17.67
2023-07-08T09:51:05.137Z,17.70
2023-07-08T09:53:32.421Z,17.71
2023-07-08T09:56:00.624Z,17.70
2023-07-08T09:58:33.528Z,17.70
2023-07-08T10:01:03.182Z,17.70
2023-07-08T10:03:33.083Z,17.69
2023-07-08T10:06:04.572Z,17.64
2023-07-08T10:08:41.258Z,17.59
2023-07-08T10:11:34.757Z,17.56
2023-07-08T10:14:17.805Z,17.53
2023-07-08T10:16:46.330Z,17.52
2023-07-08T10:19:15.234Z,17.49
2023-07-08T10:21:45.947Z,17.50
2023-07-08T10:24:35.338Z,17.51
2023-07-08T10:27:28.167Z,17.53
2023-07-08T10:29:59.599Z,17.53
2023-07-08T10:32:34.538Z,17.54
2023-07-08T10:35:15.986Z,17.57
2023-07-08T10:37:46.774Z,17.62
2023-07-08T10:40:35.199Z,17.66
2023-07-08T10:43:30.960Z,17.71
2023-07-08T10:45:58.403Z,17.73
2023-07-08T10:48:31.967Z,17.75
2023-07-08T10:51:34.855Z,17.79
2023-07-08T10:54:27.056Z,17.83
2023-07-08T10:57:03.557Z,17.88
2023-07-08T11:00:03.647Z,17.95
2023-07-08T11:02:55.866Z,18.00
2023-07-08T11:05:23.207Z,18.05
2023-07-08T11:08:01.179Z,18.09
2023-07-08T11:10:31.710Z,18.14
2023-07-08T11:13:26.629Z,18.18
2023-07-08T11:16:08.326Z,18.22
2023-07-08T11:18:48.019Z,18.27
2023-07-08T11:21:37.164Z,18.31
2023-07-08T11:24:23.867Z,18.34
2023-07-08T11:26:55.220Z,18.38
2023-07-08T11:29:38.483Z,18.40
2023-07-08T11:32:06.620Z,18.41
2023-07-08T11:34:34.410Z,18.41
2023-07-08T11:37:02.006Z,18.47
2023-07-08T11:39:31.013Z,18.52
2023-07-08T11:42:24.748Z,18.57
2023-07-08T11:44:54.562Z,18.64
2023-07-08T11:47:36.719Z,18.71
2023-07-08T11:50:04.334Z,18.78
2023-07-08T11:52:31.978Z,18.85
2023-07-08T11:55:31.006Z,18.92
2023-07-08T11:58:00.789Z,19.00
2023-07-08T12:00:33.396Z,19.07
2023-07-08T12:03:17.635Z,19.16
2023-07-08T12:05:45.072Z,19.27
2023-07-08T12:08:14.330Z,19.37
2023-07-08T12:10:48.453Z,19.48
2023-07-08T12:13:19.288Z,19.58
2023-07-08T12:15:46.998Z,19.67
2023-07-08T12:18:22.464Z,19.73
2023-07-08T12:20:54.612Z,19.80
2023-07-08T12:23:23.584Z,19.89
2023-07-08T12:25:51.571Z,19.99
2023-07-08T12:28:19.417Z,20.12
2023-07-08T12:30:47.296Z,20.23
2023-07-08T12:33:27.108Z,20.34
2023-07-08T12:35:54.878Z,20.42
2023-07-08T12:38:34.018Z,20.49
2023-07-08T12:41:03.374Z,20.53
2023-07-08T12:43:31.131Z,20.51
2023-07-08T12:45:59.679Z,20.51
2023-07-08T12:48:26.987Z,20.54
2023-07-08T12:50:54.321Z,20.56
2023-07-08T12:53:21.609Z,20.59
2023-07-08T12:55:49.331Z,20.65
2023-07-08T12:58:26.682Z,20.74
2023-07-08T13:00:54.201Z,20.81
2023-07-08T13:03:24.143Z,20.87
2023-07-08T13:05:52.204Z,20.94
2023-07-08T13:08:21.912Z,20.99
2023-07-08T13:10:57.358Z,21.03
2023-07-08T13:13:27.456Z,21.05
2023-07-08T13:15:55.163Z,21.05
2023-07-08T13:18:33.852Z,21.05
2023-07-08T13:21:01.751Z,21.06
2023-07-08T13:23:29.448Z,21.07
2023-07-08T13:25:57.234Z,21.07
2023-07-08T13:28:29.082Z,21.06
2023-07-08T13:30:58.569Z,21.06
2023-07-08T13:33:33.186Z,21.02
2023-07-08T13:36:03.246Z,20.97
2023-07-08T13:38:35.420Z,20.90
2023-07-08T13:41:04.271Z,20.84
2023-07-08T13:43:33.364Z,20.79
2023-07-08T13:46:00.943Z,20.73
2023-07-08T13:48:43.807Z,20.65
2023-07-08T13:51:19.162Z,20.56
2023-07-08T13:53:55.714Z,20.46
2023-07-08T13:56:26.404Z,20.37
2023-07-08T13:59:01.055Z,20.30
2023-07-08T14:01:28.649Z,20.21
2023-07-08T14:03:56.452Z,20.14
2023-07-08T14:06:26.117Z,20.11
2023-07-08T14:08:56.393Z,20.10
2023-07-08T14:11:24.112Z,20.10
2023-07-08T14:13:51.540Z,20.08
2023-07-08T14:16:31.127Z,20.10
2023-07-08T14:18:59.239Z,20.11
2023-07-08T14:21:26.491Z,20.12
2023-07-08T14:23:54.997Z,20.13
2023-07-08T14:26:22.439Z,20.16
2023-07-08T14:28:50.410Z,20.18
2023-07-08T14:31:21.640Z,20.23
2023-07-08T14:33:49.063Z,20.27
2023-07-08T14:36:16.355Z,20.30
2023-07-08T14:38:44.114Z,20.34
2023-07-08T14:41:11.519Z,20.37
2023-07-08T14:43:40.544Z,20.39
2023-07-08T14:46:10.049Z,20.41
2023-07-08T14:48:37.522Z,20.43
2023-07-08T14:51:04.966Z,20.45
2023-07-08T14:53:33.255Z,20.47
2023-07-08T14:56:01.078Z,20.48
2023-07-08T14:58:32.913Z,20.48
2023-07-08T15:01:01.408Z,20.48
2023-07-08T15:03:29.204Z,20.49
2023-07-08T15:05:56.832Z,20.51
2023-07-08T15:08:24.404Z,20.52
2023-07-08T15:10:52.567Z,20.54
2023-07-08T15:13:22.278Z,20.53
2023-07-08T15:15:50.132Z,20.52
2023-07-08T15:18:18.562Z,20.48
2023-07-08T15:20:46.238Z,20.46
2023-07-08T15:23:13.746Z,20.43
2023-07-08T15:25:43.065Z,20.40
2023-07-08T15:28:19.570Z,20.37
2023-07-08T15:30:47.090Z,20.34
2023-07-08T15:33:16.318Z,20.31
2023-07-08T15:35:44.884Z,20.29
2023-07-08T15:38:12.405Z,20.29
2023-07-08T15:40:39.768Z,20.28
2023-07-08T15:43:07.137Z,20.28
2023-07-08T15:45:36.199Z,20.29
2023-07-08T15:48:03.918Z,20.28
2023-07-08T15:50:31.392Z,20.29
2023-07-08T15:52:58.664Z,20.30
2023-07-08T15:55:31.352Z,20.29
2023-07-08T15:58:03.252Z,20.29
2023-07-08T16:00:32.082Z,20.29
2023-07-08T16:03:02.085Z,20.28
2023-07-08T16:05:29.812Z,20.30
2023-07-08T16:07:57.263Z,20.29
2023-07-08T16:10:25.937Z,20.29
2023-07-08T16:12:54.384Z,20.30
2023-07-08T16:15:30.064Z,20.30
2023-07-08T16:17:58.196Z,20.31
2023-07-08T16:20:27.295Z,20.31
2023-07-08T16:22:54.609Z,20.31
2023-07-08T16:25:28.813Z,20.31
2023-07-08T16:27:56.383Z,20.30
2023-07-08T16:30:23.792Z,20.28
2023-07-08T16:32:51.158Z,20.28
2023-07-08T16:35:19.743Z,20.25
2023-07-08T16:37:48.035Z,20.24
2023-07-08T16:40:17.697Z,20.24
2023-07-08T16:42:45.895Z,20.24
2023-07-08T16:45:14.644Z,20.24
2023-07-08T16:47:42.153Z,20.24
2023-07-08T16:50:10.127Z,20.25
2023-07-08T16:52:38.088Z,20.24
2023-07-08T16:55:16.718Z,20.23
2023-07-08T16:57:44.312Z,20.20
2023-07-08T17:00:17.672Z,20.16
2023-07-08T17:02:45.495Z,20.11
2023-07-08T17:05:36.417Z,20.06
2023-07-08T17:08:04.224Z,20.03
2023-07-08T17:10:31.706Z,20.00
2023-07-08T17:12:59.091Z,19.97
2023-07-08T17:15:29.274Z,19.95
2023-07-08T17:17:58.685Z,19.92
2023-07-08T17:20:28.009Z,19.88
2023-07-08T17:22:55.369Z,19.84
2023-07-08T17:25:24.976Z,19.78
2023-07-08T17:27:54.601Z,19.72
2023-07-08T17:30:22.429Z,19.66
2023-07-08T17:32:51.183Z,19.62
2023-07-08T17:35:19.179Z,19.59
2023-07-08T17:37:46.589Z,19.56
2023-07-08T17:40:25.330Z,19.54
2023-07-08T17:42:53.911Z,19.52
2023-07-08T17:45:23.681Z,19.49
2023-07-08T17:47:51.196Z,19.46
2023-07-08T17:50:23.345Z,19.41
2023-07-08T17:52:51.219Z,19.35
2023-07-08T17:55:19.020Z,19.30
2023-07-08T17:57:48.741Z,19.24
2023-07-08T18:00:22.767Z,19.17
2023-07-08T18:02:50.337Z,19.11
2023-07-08T18:05:22.501Z,19.03
2023-07-08T18:07:50.358Z,18.94
2023-07-08T18:10:17.987Z,18.86
2023-07-08T18:12:45.568Z,18.78
2023-07-08T18:15:16.387Z,18.71
2023-07-08T18:17:43.952Z,18.65
2023-07-08T18:20:11.898Z,18.60
2023-07-08T18:22:40.169Z,18.55
2023-07-08T18:25:25.746Z,18.47
2023-07-08T18:27:53.129Z,18.38
2023-07-08T18:30:21.133Z,18.31
2023-07-08T18:32:49.870Z,18.24
2023-07-08T18:35:22.475Z,18.17
2023-07-08T18:37:51.411Z,18.10
2023-07-08T18:40:30.096Z,18.04
2023-07-08T18:43:06.912Z,17.97
2023-07-08T18:45:34.675Z,17.92
2023-07-08T18:48:02.121Z,17.87
2023-07-08T18:50:29.440Z,17.79
2023-07-08T18:52:56.922Z,17.74
2023-07-08T18:55:25.152Z,17.72
2023-07-08T18:57:55.683Z,17.71
2023-07-08T19:00:23.006Z,17.71
2023-07-08T19:02:54.749Z,17.72
2023-07-08T19:05:22.218Z,17.74
2023-07-08T19:07:49.998Z,17.74
2023-07-08T19:10:18.134Z,17.74
2023-07-08T19:12:49.237Z,17.72
2023-07-08T19:15:22.083Z,17.71
2023-07-08T19:17:50.171Z,17.68
2023-07-08T19:20:17.860Z,17.66
2023-07-08T19:22:48.689Z,17.64
2023-07-08T19:25:17.643Z,17.64
2023-07-08T19:27:45.086Z,17.61
2023-07-08T19:30:13.288Z,17.57
2023-07-08T19:32:42.231Z,17.51
2023-07-08T19:35:15.966Z,17.42
2023-07-08T19:37:43.571Z,17.34
2023-07-08T19:40:13.681Z,17.26
2023-07-08T19:42:41.361Z,17.16
2023-07-08T19:45:28.521Z,17.07
2023-07-08T19:47:57.124Z,16.96
2023-07-08T19:50:26.201Z,16.84
2023-07-08T19:52:53.487Z,16.73
2023-07-08T19:55:20.820Z,16.62
2023-07-08T19:57:52.969Z,16.51
2023-07-08T20:00:23.055Z,16.40
2023-07-08T20:02:51.466Z,16.32
2023-07-08T20:05:19.990Z,16.26
2023-07-08T20:07:47.323Z,16.21
2023-07-08T20:10:16.779Z,16.15
2023-07-08T20:12:44.337Z,16.12
2023-07-08T20:15:13.145Z,16.10
2023-07-08T20:17:40.850Z,16.06
2023-07-08T20:20:22.848Z,16.04
2023-07-08T20:22:51.571Z,15.99
2023-07-08T20:25:19.272Z,15.93
2023-07-08T20:27:47.297Z,15.85
2023-07-08T20:30:23.152Z,15.77
2023-07-08T20:32:50.810Z,15.67
2023-07-08T20:35:20.061Z,15.59
2023-07-08T20:37:47.681Z,15.52
2023-07-08T20:40:25.474Z,15.46
2023-07-08T20:42:55.664Z,15.39
2023-07-08T20:45:31.243Z,15.31
2023-07-08T20:47:59.450Z,15.24
2023-07-08T20:50:27.711Z,15.16
2023-07-08T20:52:55.493Z,15.09
2023-07-08T20:55:23.071Z,15.02
2023-07-08T20:57:50.642Z,14.96
2023-07-08T21:00:25.844Z,14.91
2023-07-08T21:02:53.817Z,14.84
2023-07-08T21:05:21.368Z,14.80
2023-07-08T21:07:48.802Z,14.76
2023-07-08T21:10:20.346Z,14.71
2023-07-08T21:12:47.611Z,14.67
2023-07-08T21:15:15.700Z,14.61
2023-07-08T21:17:43.863Z,14.54
2023-07-08T21:20:21.336Z,14.47
2023-07-08T21:22:48.896Z,14.40
2023-07-08T21:25:17.095Z,14.34
2023-07-08T21:27:45.134Z,14.31
2023-07-08T21:30:25.606Z,14.28
2023-07-08T21:32:54.086Z,14.24
2023-07-08T21:35:25.197Z,14.19
2023-07-08T21:37:56.649Z,14.12
2023-07-08T21:40:48.622Z,14.06
2023-07-08T21:43:17.680Z,14.02
2023-07-08T21:45:45.547Z,13.98
2023-07-08T21:48:14.269Z,13.96
2023-07-08T21:50:55.905Z,13.95
2023-07-08T21:53:29.083Z,13.94
2023-07-08T21:55:56.818Z,13.90
2023-07-08T21:58:24.569Z,13.83
2023-07-08T22:00:52.264Z,13.76
2023-07-08T22:03:30.789Z,13.70
2023-07-08T22:06:01.719Z,13.65
2023-07-08T22:08:29.956Z,13.61
2023-07-08T22:11:01.426Z,13.57
2023-07-08T22:13:40.964Z,13.54
2023-07-08T22:16:12.284Z,13.51
2023-07-08T22:18:42.769Z,13.48
2023-07-08T22:21:17.105Z,13.46
2023-07-08T22:23:44.531Z,13.44
2023-07-08T22:26:11.976Z,13.41
2023-07-08T22:28:39.800Z,13.37
2023-07-08T22:31:34.278Z,13.32
2023-07-08T22:34:03.289Z,13.27
2023-07-08T22:36:30.770Z,13.25
2023-07-08T22:39:06.466Z,13.24
2023-07-08T22:41:38.361Z,13.23
2023-07-08T22:44:05.638Z,13.23
2023-07-08T22:46:33.092Z,13.20
2023-07-08T22:49:01.339Z,13.19
2023-07-08T22:51:29.280Z,13.17
2023-07-08T22:53:57.321Z,13.16
2023-07-08T22:56:24.589Z,13.17
2023-07-08T22:58:51.897Z,13.18
2023-07-08T23:01:19.269Z,13.18
2023-07-08T23:03:46.562Z,13.18
2023-07-08T23:06:16.729Z,13.17
2023-07-08T23:08:43.978Z,13.15
2023-07-08T23:11:13.550Z,13.14
2023-07-08T23:13:42.728Z,13.15
2023-07-08T23:16:18.628Z,13.14
2023-07-08T23:18:48.100Z,13.14
2023-07-08T23:21:16.508Z,13.13
2023-07-08T23:23:43.850Z,13.12
2023-07-08T23:26:21.799Z,13.10
2023-07-08T23:28:58.249Z,13.09
2023-07-08T23:31:26.405Z,13.10
2023-07-08T23:33:53.881Z,13.10
2023-07-08T23:36:29.185Z,13.11
2023-07-08T23:38:56.504Z,13.09
2023-07-08T23:41:24.061Z,13.08
2023-07-08T23:43:51.287Z,13.07
2023-07-08T23:46:26.983Z,13.07
2023-07-08T23:48:54.500Z,13.08
2023-07-08T23:51:22.910Z,13.09
2023-07-08T23:53:50.275Z,13.09
2023-07-08T23:56:18.435Z,13.07
2023-07-08T23:58:45.844Z,13.05
